createdAt,value
2023-05-24T00:00:53.196Z,5.05
2023-05-24T00:03:27.971Z,5.07
2023-05-24T00:05:55.871Z,6.40
2023-05-24T00:08:23.260Z,5.93
2023-05-24T00:10:50.950Z,5.80
2023-05-24T00:13:18.498Z,5.25
2023-05-24T00:15:46.144Z,5.85
2023-05-24T00:18:13.763Z,5.32
2023-05-24T00:20:41.638Z,5.55
2023-05-24T00:23:09.640Z,5.25
2023-05-24T00:25:37.250Z,5.53
2023-05-24T00:28:04.698Z,5.07
2023-05-24T00:30:32.332Z,5.90
2023-05-24T00:32:59.719Z,5.22
2023-05-24T00:35:27.387Z,5.00
2023-05-24T00:37:54.746Z,4.95
2023-05-24T00:40:22.383Z,5.82
2023-05-24T00:42:49.753Z,5.82
2023-05-24T00:45:17.389Z,6.05
2023-05-24T00:47:45.090Z,5.85
2023-05-24T00:50:14.454Z,5.25
2023-05-24T00:52:42.572Z,5.53
2023-05-24T00:55:10.613Z,5.68
2023-05-24T00:57:38.084Z,5.18
2023-05-24T01:00:07.977Z,6.75
2023-05-24T01:02:35.524Z,7.07
2023-05-24T01:05:04.018Z,6.38
2023-05-24T01:07:39.856Z,5.72
2023-05-24T01:10:13.743Z,6.93
2023-05-24T01:13:04.591Z,6.80
2023-05-24T01:15:55.365Z,6.63
2023-05-24T01:18:30.351Z,10.15
2023-05-24T01:21:06.852Z,6.53
2023-05-24T01:23:34.408Z,7.07
2023-05-24T01:26:19.614Z,7.95
2023-05-24T01:28:48.393Z,7.00
2023-05-24T01:31:16.838Z,7.22
2023-05-24T01:33:44.704Z,7.10
2023-05-24T01:36:12.375Z,6.60
2023-05-24T01:38:40.779Z,5.90
2023-05-24T01:41:19.202Z,7.10
2023-05-24T01:43:53.460Z,6.45
2023-05-24T01:46:40.343Z,7.00
2023-05-24T01:49:07.955Z,6.60
2023-05-24T01:51:39.768Z,6.40
2023-05-24T01:54:07.588Z,6.15
2023-05-24T01:56:36.225Z,7.35
2023-05-24T01:59:04.217Z,6.53
2023-05-24T02:01:32.338Z,6.47
2023-05-24T02:04:00.302Z,7.20
2023-05-24T02:06:28.051Z,7.43
2023-05-24T02:08:55.481Z,7.40
2023-05-24T02:11:23.464Z,7.28
2023-05-24T02:13:50.951Z,7.20
2023-05-24T02:16:18.776Z,6.88
2023-05-24T02:18:46.889Z,6.60
2023-05-24T02:21:14.987Z,6.63
2023-05-24T02:23:42.585Z,6.90
2023-05-24T02:26:13.884Z,6.30
2023-05-24T02:28:41.457Z,6.78
2023-05-24T02:31:09.324Z,6.45
2023-05-24T02:33:37.479Z,6.20
2023-05-24T02:36:05.342Z,7.65
2023-05-24T02:38:33.126Z,7.57
2023-05-24T02:41:00.917Z,7.53
2023-05-24T02:43:28.267Z,7.00
2023-05-24T02:45:56.143Z,7.75
2023-05-24T02:48:23.564Z,7.82
2023-05-24T02:50:51.309Z,7.55
2023-05-24T02:53:18.712Z,6.38
2023-05-24T02:55:46.724Z,6.43
2023-05-24T02:58:14.071Z,6.80
2023-05-24T03:00:41.958Z,5.93
2023-05-24T03:03:09.541Z,7.80
2023-05-24T03:05:37.321Z,7.53
2023-05-24T03:08:04.700Z,7.53
2023-05-24T03:10:32.471Z,7.10
2023-05-24T03:12:59.783Z,7.05
2023-05-24T03:15:27.439Z,7.90
2023-05-24T03:17:54.799Z,9.38
2023-05-24T03:20:23.917Z,7.93
2023-05-24T03:22:51.305Z,7.93
2023-05-24T03:25:19.091Z,7.32
2023-05-24T03:27:46.489Z,7.00
2023-05-24T03:30:14.395Z,7.07
2023-05-24T03:32:41.769Z,7.32
2023-05-24T03:35:12.116Z,7.13
2023-05-24T03:37:39.631Z,6.80
2023-05-24T03:40:07.951Z,6.80
2023-05-24T03:42:35.324Z,6.85
2023-05-24T03:45:02.998Z,7.50
2023-05-24T03:47:30.470Z,7.10
2023-05-24T03:49:58.415Z,7.05
2023-05-24T03:52:26.133Z,7.03
2023-05-24T03:54:53.802Z,7.97
2023-05-24T03:57:21.191Z,7.30
2023-05-24T03:59:49.162Z,7.03
2023-05-24T04:02:16.504Z,6.97
2023-05-24T04:04:44.282Z,6.68
2023-05-24T04:07:11.948Z,6.95
2023-05-24T04:09:40.342Z,6.57
2023-05-24T04:12:07.840Z,6.20
2023-05-24T04:14:35.489Z,7.15
2023-05-24T04:17:05.744Z,6.70
2023-05-24T04:19:33.523Z,6.60
2023-05-24T04:22:00.908Z,6.90
2023-05-24T04:24:28.581Z,7.18
2023-05-24T04:26:58.256Z,5.85
2023-05-24T04:29:26.704Z,6.10
2023-05-24T04:31:54.187Z,5.80
2023-05-24T04:34:22.375Z,6.13
2023-05-24T04:36:52.486Z,6.10
2023-05-24T04:39:20.113Z,5.78
2023-05-24T04:41:51.111Z,5.95
2023-05-24T04:44:18.985Z,6.15
2023-05-24T04:46:46.424Z,5.75
2023-05-24T04:49:14.088Z,6.32
2023-05-24T04:51:41.527Z,5.72
2023-05-24T04:54:09.477Z,6.07
2023-05-24T04:56:38.539Z,5.78
2023-05-24T04:59:07.016Z,5.43
2023-05-24T05:01:34.974Z,5.63
2023-05-24T05:04:04.640Z,5.68
2023-05-24T05:06:34.900Z,5.70
2023-05-24T05:09:02.917Z,6.82
2023-05-24T05:11:30.300Z,6.05
2023-05-24T05:13:58.089Z,5.57
2023-05-24T05:16:25.789Z,6.38
2023-05-24T05:18:53.454Z,5.55
2023-05-24T05:21:20.862Z,5.45
2023-05-24T05:23:48.676Z,5.93
2023-05-24T05:26:16.085Z,5.90
2023-05-24T05:28:43.803Z,5.63
2023-05-24T05:31:11.286Z,7.05
2023-05-24T05:33:39.111Z,6.03
2023-05-24T05:36:06.649Z,5.43
2023-05-24T05:38:34.290Z,6.15
2023-05-24T05:41:01.648Z,6.55
2023-05-24T05:43:29.567Z,7.40
2023-05-24T05:45:57.402Z,6.55
2023-05-24T05:48:25.266Z,6.80
2023-05-24T05:50:52.752Z,6.90
2023-05-24T05:53:20.448Z,6.68
2023-05-24T05:55:47.796Z,6.55
2023-05-24T05:58:15.504Z,6.22
2023-05-24T06:00:43.101Z,5.95
2023-05-24T06:03:11.155Z,6.40
2023-05-24T06:05:38.769Z,6.38
2023-05-24T06:08:06.443Z,8.57
2023-05-24T06:10:33.788Z,7.05
2023-05-24T06:13:02.851Z,6.60
2023-05-24T06:15:30.749Z,6.35
2023-05-24T06:17:58.471Z,6.35
2023-05-24T06:20:26.007Z,5.47
2023-05-24T06:22:53.808Z,4.97
2023-05-24T06:25:22.856Z,6.45
2023-05-24T06:27:53.702Z,5.85
2023-05-24T06:30:21.167Z,6.93
2023-05-24T06:32:48.946Z,5.32
2023-05-24T06:35:16.922Z,5.47
2023-05-24T06:37:45.025Z,5.28
2023-05-24T06:40:12.976Z,5.43
2023-05-24T06:42:40.767Z,4.18
2023-05-24T06:45:08.582Z,4.90
2023-05-24T06:47:36.964Z,5.10
2023-05-24T06:50:04.744Z,3.78
2023-05-24T06:52:32.430Z,5.07
2023-05-24T06:54:59.849Z,4.55
2023-05-24T06:57:27.781Z,5.32
2023-05-24T06:59:55.180Z,5.40
2023-05-24T07:02:27.373Z,4.57
2023-05-24T07:04:55.145Z,6.15
2023-05-24T07:07:22.916Z,5.47
2023-05-24T07:09:50.398Z,5.20
2023-05-24T07:12:18.266Z,5.70
2023-05-24T07:14:45.984Z,5.82
2023-05-24T07:17:13.798Z,5.32
2023-05-24T07:19:41.825Z,5.47
2023-05-24T07:22:09.446Z,5.28
2023-05-24T07:24:36.811Z,4.45
2023-05-24T07:27:04.895Z,4.60
2023-05-24T07:29:32.268Z,5.22
2023-05-24T07:32:00.901Z,4.38
2023-05-24T07:34:30.160Z,5.45
2023-05-24T07:37:00.593Z,5.55
2023-05-24T07:39:28.562Z,5.07
2023-05-24T07:41:56.524Z,5.28
2023-05-24T07:44:24.236Z,5.70
2023-05-24T07:46:51.993Z,4.25
2023-05-24T07:49:19.566Z,4.93
2023-05-24T07:51:47.831Z,4.47
2023-05-24T07:54:15.532Z,4.18
2023-05-24T07:56:43.355Z,5.00
2023-05-24T07:59:10.701Z,5.20
2023-05-24T08:01:38.980Z,4.95
2023-05-24T08:04:08.753Z,5.13
2023-05-24T08:06:37.254Z,4.88
2023-05-24T08:09:05.342Z,4.60
2023-05-24T08:11:33.073Z,4.70
2023-05-24T08:14:00.529Z,4.65
2023-05-24T08:16:28.335Z,4.55
2023-05-24T08:18:55.736Z,5.50
2023-05-24T08:21:23.575Z,5.60
2023-05-24T08:23:51.217Z,5.15
2023-05-24T08:26:20.913Z,5.28
2023-05-24T08:28:48.549Z,5.50
2023-05-24T08:31:16.425Z,6.00
2023-05-24T08:33:44.191Z,5.63
2023-05-24T08:36:12.203Z,5.38
2023-05-24T08:38:39.576Z,6.05
2023-05-24T08:41:08.478Z,5.22
2023-05-24T08:43:36.060Z,5.07
2023-05-24T08:46:04.274Z,4.70
2023-05-24T08:48:32.252Z,4.70
2023-05-24T08:51:00.030Z,5.43
2023-05-24T08:53:27.942Z,4.95
2023-05-24T08:55:56.148Z,4.70
2023-05-24T08:58:23.708Z,3.97
2023-05-24T09:00:51.397Z,4.63
2023-05-24T09:03:19.447Z,4.00
2023-05-24T09:05:47.432Z,4.60
2023-05-24T09:08:18.109Z,4.32
2023-05-24T09:10:55.082Z,4.68
2023-05-24T09:13:25.137Z,4.03
2023-05-24T09:15:53.662Z,4.10
2023-05-24T09:18:21.371Z,4.78
2023-05-24T09:20:49.285Z,4.63
2023-05-24T09:23:16.976Z,3.90
2023-05-24T09:25:48.462Z,4.20
2023-05-24T09:28:17.888Z,4.55
2023-05-24T09:30:46.412Z,4.45
2023-05-24T09:33:14.018Z,4.93
2023-05-24T09:35:45.067Z,4.72
2023-05-24T09:38:19.589Z,4.50
2023-05-24T09:40:47.735Z,4.97
2023-05-24T09:43:15.168Z,4.82
2023-05-24T09:45:46.819Z,6.10
2023-05-24T09:48:15.355Z,5.15
2023-05-24T09:50:45.797Z,4.60
2023-05-24T09:53:13.308Z,4.95
2023-05-24T09:55:41.093Z,5.03
2023-05-24T09:58:09.403Z,4.45
2023-05-24T10:00:40.277Z,4.80
2023-05-24T10:03:09.078Z,4.35
2023-05-24T10:05:37.433Z,4.35
2023-05-24T10:08:05.255Z,4.78
2023-05-24T10:10:33.667Z,5.00
2023-05-24T10:13:02.139Z,3.47
2023-05-24T10:15:30.880Z,4.72
2023-05-24T10:18:00.579Z,3.33
2023-05-24T10:20:28.660Z,4.97
2023-05-24T10:23:00.503Z,4.13
2023-05-24T10:25:28.756Z,4.90
2023-05-24T10:27:58.642Z,4.22
2023-05-24T10:30:38.037Z,4.68
2023-05-24T10:33:07.980Z,4.45
2023-05-24T10:35:38.186Z,4.88
2023-05-24T10:38:08.931Z,4.60
2023-05-24T10:40:41.603Z,4.90
2023-05-24T10:43:09.358Z,4.80
2023-05-24T10:45:38.550Z,4.68
2023-05-24T10:48:10.460Z,4.40
2023-05-24T10:50:38.273Z,4.38
2023-05-24T10:53:19.107Z,4.38
2023-05-24T10:56:09.624Z,4.05
2023-05-24T10:59:06.153Z,4.20
2023-05-24T11:01:34.954Z,4.35
2023-05-24T11:04:08.759Z,4.35
2023-05-24T11:06:48.489Z,4.07
2023-05-24T11:09:17.000Z,4.57
2023-05-24T11:11:45.923Z,4.80
2023-05-24T11:14:13.902Z,4.60
2023-05-24T11:16:41.991Z,4.95
2023-05-24T11:19:14.050Z,4.32
2023-05-24T11:21:44.274Z,4.28
2023-05-24T11:24:12.174Z,4.55
2023-05-24T11:26:40.372Z,4.38
2023-05-24T11:29:08.140Z,4.55
2023-05-24T11:31:43.250Z,4.50
2023-05-24T11:34:12.259Z,4.25
2023-05-24T11:36:41.086Z,5.03
2023-05-24T11:39:09.562Z,4.65
2023-05-24T11:41:38.502Z,4.95
2023-05-24T11:44:07.025Z,5.43
2023-05-24T11:46:34.861Z,5.50
2023-05-24T11:49:03.533Z,5.30
2023-05-24T11:51:32.092Z,5.97
2023-05-24T11:54:00.199Z,4.68
2023-05-24T11:56:33.178Z,5.95
2023-05-24T11:59:17.964Z,5.10
2023-05-24T12:01:45.884Z,5.20
2023-05-24T12:04:14.824Z,4.75
2023-05-24T12:06:43.447Z,5.28
2023-05-24T12:09:13.621Z,5.28
2023-05-24T12:11:42.431Z,5.80
2023-05-24T12:14:13.758Z,5.68
2023-05-24T12:16:43.468Z,4.95
2023-05-24T12:19:31.586Z,5.30
2023-05-24T12:22:00.829Z,5.38
2023-05-24T12:24:28.812Z,5.72
2023-05-24T12:27:06.704Z,8.57
2023-05-24T12:29:39.886Z,6.63
2023-05-24T12:32:13.225Z,4.88
2023-05-24T12:34:42.728Z,6.32
2023-05-24T12:37:11.173Z,5.72
2023-05-24T12:39:39.614Z,5.45
2023-05-24T12:42:07.526Z,5.28
2023-05-24T12:44:38.553Z,4.65
2023-05-24T12:47:07.523Z,4.75
2023-05-24T12:49:35.524Z,5.13
2023-05-24T12:52:03.310Z,5.32
2023-05-24T12:54:30.908Z,5.22
2023-05-24T12:57:05.239Z,4.60
2023-05-24T12:59:34.014Z,5.05
2023-05-24T13:02:02.459Z,5.10
2023-05-24T13:04:33.422Z,5.00
2023-05-24T13:07:02.878Z,5.32
2023-05-24T13:09:30.391Z,5.03
2023-05-24T13:11:58.207Z,5.35
2023-05-24T13:14:25.762Z,5.70
2023-05-24T13:16:53.700Z,5.78
2023-05-24T13:19:21.628Z,5.28
2023-05-24T13:21:49.618Z,5.10
2023-05-24T13:24:17.348Z,4.85
2023-05-24T13:26:45.445Z,5.05
2023-05-24T13:31:44.914Z,4.45
2023-05-24T13:34:12.685Z,4.22
2023-05-24T13:36:40.341Z,4.65
2023-05-24T13:44:28.732Z,6.90
2023-05-24T13:46:56.651Z,5.10
2023-05-24T13:47:41.501Z,4.63
2023-05-24T13:49:24.078Z,4.55
2023-05-24T13:51:55.473Z,4.93
2023-05-24T13:56:57.091Z,5.25
2023-05-24T13:59:24.715Z,5.47
2023-05-24T14:01:52.496Z,5.20
2023-05-24T14:04:20.007Z,5.00
2023-05-24T14:06:48.177Z,5.15
2023-05-24T14:09:15.623Z,5.93
2023-05-24T14:11:45.380Z,5.32
2023-05-24T14:16:43.437Z,5.57
2023-05-24T14:19:10.940Z,5.22
2023-05-24T14:21:38.871Z,4.68
2023-05-24T14:24:06.498Z,4.88
2023-05-24T14:26:34.148Z,4.72
2023-05-24T14:29:01.722Z,4.95
2023-05-24T14:31:29.492Z,4.78
2023-05-24T14:33:56.894Z,4.72
2023-05-24T14:36:24.678Z,5.10
2023-05-24T14:38:52.086Z,5.70
2023-05-24T14:41:19.974Z,5.68
2023-05-24T14:43:47.466Z,8.48
2023-05-24T14:46:15.382Z,12.32
2023-05-24T14:48:43.046Z,5.82
2023-05-24T14:51:11.641Z,13.98
2023-05-24T14:53:39.024Z,15.15
2023-05-24T14:56:09.054Z,7.60
2023-05-24T14:58:36.770Z,5.95
2023-05-24T15:01:05.016Z,5.95
2023-05-24T15:03:32.892Z,5.40
2023-05-24T15:06:01.221Z,5.78
2023-05-24T15:08:28.687Z,7.10
2023-05-24T15:10:58.730Z,7.70
2023-05-24T15:13:26.638Z,8.15
2023-05-24T15:15:56.594Z,8.63
2023-05-24T15:18:25.703Z,10.07
2023-05-24T15:20:53.556Z,13.75
2023-05-24T15:23:21.618Z,6.63
2023-05-24T15:25:49.312Z,6.00
2023-05-24T15:28:17.225Z,13.68
2023-05-24T15:30:46.884Z,6.88
2023-05-24T15:33:14.666Z,6.15
2023-05-24T15:35:42.396Z,5.53
2023-05-24T15:38:10.056Z,13.20
2023-05-24T15:40:38.569Z,7.65
2023-05-24T15:43:06.690Z,6.20
2023-05-24T15:45:34.190Z,6.15
2023-05-24T15:48:04.594Z,5.57
2023-05-24T15:50:49.256Z,5.47
2023-05-24T15:53:21.709Z,5.72
2023-05-24T15:55:49.466Z,7.03
2023-05-24T15:58:18.341Z,7.63
2023-05-24T16:00:45.788Z,6.47
2023-05-24T16:03:15.661Z,7.35
2023-05-24T16:05:43.474Z,10.90
2023-05-24T16:08:11.265Z,7.15
2023-05-24T16:10:38.757Z,6.60
2023-05-24T16:13:06.624Z,5.18
2023-05-24T16:15:36.066Z,6.57
2023-05-24T16:18:07.586Z,6.68
2023-05-24T16:20:35.407Z,8.50
2023-05-24T16:23:03.599Z,7.60
2023-05-24T16:25:31.124Z,5.95
2023-05-24T16:28:00.298Z,5.20
2023-05-24T16:30:27.973Z,5.53
2023-05-24T16:32:55.867Z,5.50
2023-05-24T16:35:23.378Z,6.95
2023-05-24T16:37:51.947Z,6.18
2023-05-24T16:40:19.380Z,6.10
2023-05-24T16:42:48.324Z,7.00
2023-05-24T16:45:16.228Z,8.10
2023-05-24T16:47:44.171Z,6.40
2023-05-24T16:50:15.244Z,4.55
2023-05-24T16:52:43.815Z,4.30
2023-05-24T16:55:16.079Z,5.18
2023-05-24T16:57:43.898Z,4.30
2023-05-24T17:00:11.832Z,3.92
2023-05-24T17:02:40.079Z,5.93
2023-05-24T17:05:07.883Z,6.93
2023-05-24T17:07:35.638Z,5.53
2023-05-24T17:10:03.345Z,5.20
2023-05-24T17:12:31.369Z,4.72
2023-05-24T17:14:59.137Z,3.80
2023-05-24T17:17:27.181Z,4.30
2023-05-24T17:19:54.848Z,4.68
2023-05-24T17:22:22.888Z,3.70
2023-05-24T17:24:50.641Z,3.88
2023-05-24T17:27:22.183Z,3.97
2023-05-24T17:29:50.472Z,3.53
2023-05-24T17:32:18.755Z,4.15
2023-05-24T17:34:46.080Z,3.80
2023-05-24T17:37:14.112Z,4.07
2023-05-24T17:39:41.764Z,4.57
2023-05-24T17:42:09.724Z,5.93
2023-05-24T17:44:37.480Z,5.22
2023-05-24T17:47:05.745Z,5.00
2023-05-24T17:49:33.345Z,5.28
2023-05-24T17:52:01.679Z,5.10
2023-05-24T17:54:29.358Z,4.32
2023-05-24T17:56:57.856Z,4.68
2023-05-24T17:59:25.661Z,4.82
2023-05-24T18:01:53.660Z,4.88
2023-05-24T18:04:21.625Z,5.45
2023-05-24T18:06:49.300Z,6.72
2023-05-24T18:09:16.983Z,7.72
2023-05-24T18:11:44.951Z,7.18
2023-05-24T18:14:12.698Z,5.63
2023-05-24T18:16:41.473Z,6.03
2023-05-24T18:19:09.081Z,9.00
2023-05-24T18:21:37.494Z,6.80
2023-05-24T18:24:04.969Z,5.47
2023-05-24T18:26:33.592Z,5.97
2023-05-24T18:29:01.200Z,6.25
2023-05-24T18:31:29.265Z,7.68
2023-05-24T18:33:56.891Z,19.00
2023-05-24T18:36:24.576Z,22.77
2023-05-24T18:38:52.241Z,11.45
2023-05-24T18:41:20.033Z,13.88
2023-05-24T18:43:47.478Z,9.10
2023-05-24T18:46:15.943Z,7.38
2023-05-24T18:48:43.847Z,9.18
2023-05-24T18:51:12.966Z,6.65
2023-05-24T18:53:40.675Z,6.18
2023-05-24T18:56:08.675Z,6.30
2023-05-24T18:58:36.616Z,6.50
2023-05-24T19:01:04.618Z,6.05
2023-05-24T19:03:32.689Z,6.60
2023-05-24T19:06:00.737Z,5.82
2023-05-24T19:08:28.327Z,5.90
2023-05-24T19:10:56.358Z,5.95
2023-05-24T19:13:24.619Z,6.40
2023-05-24T19:15:53.636Z,6.47
2023-05-24T19:18:23.050Z,7.10
2023-05-24T19:20:51.088Z,7.45
2023-05-24T19:23:18.678Z,6.10
2023-05-24T19:25:50.148Z,6.25
2023-05-24T19:28:17.861Z,5.10
2023-05-24T19:30:46.312Z,6.88
2023-05-24T19:33:14.532Z,6.28
2023-05-24T19:35:43.098Z,6.00
2023-05-24T19:38:11.940Z,6.65
2023-05-24T19:40:40.038Z,5.40
2023-05-24T19:43:08.184Z,6.30
2023-05-24T19:45:35.894Z,6.13
2023-05-24T19:48:05.088Z,6.15
2023-05-24T19:50:33.246Z,6.93
2023-05-24T19:53:00.852Z,6.47
2023-05-24T19:55:28.896Z,7.35
2023-05-24T19:57:56.315Z,7.45
2023-05-24T20:00:24.307Z,7.32
2023-05-24T20:02:52.534Z,6.90
2023-05-24T20:05:21.009Z,7.32
2023-05-24T20:07:48.548Z,7.65
2023-05-24T20:10:17.485Z,8.80
2023-05-24T20:12:45.119Z,9.30
2023-05-24T20:15:16.410Z,13.25
2023-05-24T20:17:48.433Z,10.45
2023-05-24T20:20:16.524Z,10.32
2023-05-24T20:22:44.204Z,9.35
2023-05-24T20:25:12.794Z,7.47
2023-05-24T20:27:41.772Z,7.53
2023-05-24T20:30:10.679Z,7.50
2023-05-24T20:32:38.759Z,6.72
2023-05-24T20:35:07.148Z,7.57
2023-05-24T20:37:34.884Z,21.15
2023-05-24T20:40:02.979Z,14.63
2023-05-24T20:42:31.803Z,10.27
2023-05-24T20:44:59.770Z,9.05
2023-05-24T20:47:30.167Z,7.53
2023-05-24T20:49:58.320Z,6.93
2023-05-24T20:52:26.131Z,6.18
2023-05-24T20:54:55.707Z,5.38
2023-05-24T20:57:23.059Z,4.95
2023-05-24T20:59:51.918Z,3.88
2023-05-24T21:02:19.300Z,4.97
2023-05-24T21:04:47.298Z,3.80
2023-05-24T21:07:14.677Z,4.20
2023-05-24T21:09:42.455Z,4.30
2023-05-24T21:12:10.043Z,4.45
2023-05-24T21:14:37.854Z,4.68
2023-05-24T21:17:05.420Z,5.90
2023-05-24T21:19:33.123Z,5.20
2023-05-24T21:22:00.624Z,5.53
2023-05-24T21:24:28.288Z,5.30
2023-05-24T21:26:55.922Z,5.50
2023-05-24T21:29:23.668Z,4.80
2023-05-24T21:31:51.369Z,5.80
2023-05-24T21:34:19.141Z,5.22
2023-05-24T21:36:46.497Z,4.70
2023-05-24T21:39:14.226Z,5.03
2023-05-24T21:41:41.682Z,5.35
2023-05-24T21:44:09.360Z,4.07
2023-05-24T21:46:37.000Z,4.80
2023-05-24T21:49:04.699Z,5.03
2023-05-24T21:51:32.101Z,5.22
2023-05-24T21:54:00.374Z,5.05
2023-05-24T21:56:27.751Z,5.22
2023-05-24T21:58:55.508Z,4.82
2023-05-24T22:01:22.852Z,5.03
2023-05-24T22:03:50.844Z,5.70
2023-05-24T22:06:18.206Z,4.65
2023-05-24T22:08:45.855Z,5.40
2023-05-24T22:11:13.212Z,5.43
2023-05-24T22:13:40.818Z,4.93
2023-05-24T22:16:08.390Z,6.45
2023-05-24T22:18:36.057Z,5.38
2023-05-24T22:21:03.564Z,5.30
2023-05-24T22:23:31.219Z,4.90
2023-05-24T22:25:58.552Z,5.43
2023-05-24T22:28:26.324Z,5.45
2023-05-24T22:30:53.714Z,5.35
2023-05-24T22:33:21.440Z,6.97
2023-05-24T22:35:48.778Z,6.32
2023-05-24T22:38:16.479Z,6.93
2023-05-24T22:40:45.642Z,6.20
2023-05-24T22:43:13.290Z,6.78
2023-05-24T22:45:40.664Z,5.15
2023-05-24T22:48:08.456Z,5.15
2023-05-24T22:50:35.961Z,6.68
2023-05-24T22:53:03.647Z,6.32
2023-05-24T22:55:31.011Z,5.40
2023-05-24T22:57:58.880Z,6.50
2023-05-24T23:00:26.498Z,5.57
2023-05-24T23:02:54.208Z,5.30
2023-05-24T23:05:21.736Z,5.75
2023-05-24T23:07:49.445Z,6.55
2023-05-24T23:10:16.872Z,6.05
2023-05-24T23:12:44.578Z,5.68
2023-05-24T23:15:16.585Z,6.10
2023-05-24T23:17:44.525Z,5.70
2023-05-24T23:20:14.301Z,5.85
2023-05-24T23:22:44.137Z,5.72
2023-05-24T23:25:11.710Z,5.97
2023-05-24T23:27:40.802Z,6.55
2023-05-24T23:30:08.714Z,6.53
2023-05-24T23:32:36.475Z,6.10
2023-05-24T23:35:04.328Z,6.38
2023-05-24T23:37:32.437Z,6.82
2023-05-24T23:40:02.506Z,6.13
2023-05-24T23:42:30.542Z,6.68
2023-05-24T23:44:58.148Z,7.20
2023-05-24T23:47:25.846Z,6.70
2023-05-24T23:49:53.297Z,7.68
2023-05-24T23:52:20.993Z,7.70
2023-05-24T23:54:48.310Z,7.63
2023-05-24T23:57:17.503Z,7.22
2023-05-24T23:59:44.972Z,6.53
